Terminal Aerodrome Forecast
Issued by NWS

Home | Current Version | Previous Version | Graphics & Text | Print | Product List | Glossary On
Versions: 1 2 3 4 5 6 7 8 9 10 11 12 13 14 15 16 17 18 19 20 21 22
827
FTUS43 KGRB 191634 AAA
TAFAUW
TAF AMD
KAUW 191634Z 1917/2012 21006KT 1/4SM FZFG OVC002
     FM191800 00000KT 1 1/2SM BR BKN005
     FM191900 VRB03KT 6SM BR SCT015 SCT070
     FM200300 09002KT 5SM BR BKN011 BKN070
      TEMPO 2004/2008 3SM -FZRAPL BR OVC006
     FM200800 09003KT 3SM -FZRAPL BR OVC004
     FM201000 09002KT 1SM -RA BR OVC002=

USA.gov is the U.S. government's official web portal to all federal, state and local government web resources and services.